sensor_id;sensor_type;location;lat;lon;timestamp;pressure;altitude;pressure_sealevel;temperature;humidity
4745;BME280;2386;42.138;24.746;2023-04-02T00:00:26;98660.88;;;11.50;79.65
4745;BME280;2386;42.138;24.746;2023-04-02T00:03:00;98658.06;;;11.72;80.00
4745;BME280;2386;42.138;24.746;2023-04-02T00:08:04;98679.38;;;11.86;78.71
4745;BME280;2386;42.138;24.746;2023-04-02T00:10:48;98668.53;;;11.96;78.85
4745;BME280;2386;42.138;24.746;2023-04-02T00:15:43;98659.78;;;11.83;78.90
4745;BME280;2386;42.138;24.746;2023-04-02T00:18:18;98666.06;;;11.94;79.60
4745;BME280;2386;42.138;24.746;2023-04-02T00:20:51;98662.41;;;11.73;77.98
4745;BME280;2386;42.138;24.746;2023-04-02T00:23:18;98666.41;;;11.61;78.85
4745;BME280;2386;42.138;24.746;2023-04-02T00:25:44;98670.53;;;11.68;78.32
4745;BME280;2386;42.138;24.746;2023-04-02T00:28:14;98669.13;;;11.61;78.42
4745;BME280;2386;42.138;24.746;2023-04-02T00:30:54;98664.31;;;11.36;79.32
4745;BME280;2386;42.138;24.746;2023-04-02T00:33:23;98673.34;;;11.46;79.23
4745;BME280;2386;42.138;24.746;2023-04-02T00:35:51;98664.69;;;11.49;79.88
4745;BME280;2386;42.138;24.746;2023-04-02T00:38:24;98669.50;;;11.42;79.42
4745;BME280;2386;42.138;24.746;2023-04-02T00:40:54;98665.97;;;11.42;80.34
4745;BME280;2386;42.138;24.746;2023-04-02T00:43:21;98666.06;;;11.52;80.07
4745;BME280;2386;42.138;24.746;2023-04-02T00:45:54;98680.22;;;11.59;80.32
4745;BME280;2386;42.138;24.746;2023-04-02T00:51:13;98683.59;;;11.71;81.07
4745;BME280;2386;42.138;24.746;2023-04-02T00:53:41;98686.78;;;11.63;81.59
4745;BME280;2386;42.138;24.746;2023-04-02T00:56:14;98684.59;;;11.60;82.56
4745;BME280;2386;42.138;24.746;2023-04-02T00:58:42;98680.34;;;11.74;82.07
4745;BME280;2386;42.138;24.746;2023-04-02T01:01:20;98674.41;;;11.77;81.46
4745;BME280;2386;42.138;24.746;2023-04-02T01:04:00;98678.56;;;11.85;80.09
4745;BME280;2386;42.138;24.746;2023-04-02T01:06:31;98670.03;;;11.76;80.19
4745;BME280;2386;42.138;24.746;2023-04-02T01:09:05;98678.00;;;11.51;79.78
4745;BME280;2386;42.138;24.746;2023-04-02T01:11:58;98677.19;;;11.50;81.42
4745;BME280;2386;42.138;24.746;2023-04-02T01:17:24;98679.34;;;11.48;78.57
4745;BME280;2386;42.138;24.746;2023-04-02T01:25:40;98702.63;;;11.76;79.90
4745;BME280;2386;42.138;24.746;2023-04-02T01:28:17;98686.59;;;11.75;79.76
4745;BME280;2386;42.138;24.746;2023-04-02T01:30:47;98674.66;;;11.76;79.05
4745;BME280;2386;42.138;24.746;2023-04-02T01:33:15;98682.59;;;11.82;78.05
4745;BME280;2386;42.138;24.746;2023-04-02T01:35:43;98690.78;;;11.88;78.28
4745;BME280;2386;42.138;24.746;2023-04-02T01:38:26;98692.44;;;11.94;78.21
4745;BME280;2386;42.138;24.746;2023-04-02T01:43:41;98683.75;;;11.97;76.42
4745;BME280;2386;42.138;24.746;2023-04-02T01:46:27;98684.91;;;12.06;76.13
4745;BME280;2386;42.138;24.746;2023-04-02T01:48:55;98690.88;;;12.08;75.85
4745;BME280;2386;42.138;24.746;2023-04-02T01:51:30;98700.38;;;12.05;76.06
4745;BME280;2386;42.138;24.746;2023-04-02T01:53:59;98694.44;;;12.08;75.69
4745;BME280;2386;42.138;24.746;2023-04-02T01:56:26;98696.88;;;12.10;76.10
4745;BME280;2386;42.138;24.746;2023-04-02T01:58:53;98689.75;;;11.99;74.08
4745;BME280;2386;42.138;24.746;2023-04-02T02:01:27;98692.72;;;11.97;75.55
4745;BME280;2386;42.138;24.746;2023-04-02T02:03:56;98691.34;;;11.95;74.29
4745;BME280;2386;42.138;24.746;2023-04-02T02:06:22;98684.25;;;11.89;73.31
4745;BME280;2386;42.138;24.746;2023-04-02T02:08:51;98690.31;;;12.01;72.36
4745;BME280;2386;42.138;24.746;2023-04-02T02:11:20;98682.69;;;11.98;73.14
4745;BME280;2386;42.138;24.746;2023-04-02T02:14:33;98679.69;;;11.99;73.31
4745;BME280;2386;42.138;24.746;2023-04-02T02:16:40;98675.09;;;12.05;73.52
4745;BME280;2386;42.138;24.746;2023-04-02T02:21:53;98675.69;;;12.12;74.75
4745;BME280;2386;42.138;24.746;2023-04-02T02:24:26;98665.31;;;12.04;76.10
4745;BME280;2386;42.138;24.746;2023-04-02T02:29:43;98653.97;;;12.17;73.93
4745;BME280;2386;42.138;24.746;2023-04-02T02:32:11;98660.50;;;12.21;73.64
4745;BME280;2386;42.138;24.746;2023-04-02T02:34:43;98665.91;;;12.16;73.60
4745;BME280;2386;42.138;24.746;2023-04-02T02:37:17;98666.19;;;12.14;73.78
4745;BME280;2386;42.138;24.746;2023-04-02T02:39:47;98668.66;;;12.16;72.11
4745;BME280;2386;42.138;24.746;2023-04-02T02:42:27;98669.47;;;12.16;73.20
4745;BME280;2386;42.138;24.746;2023-04-02T02:44:56;98657.66;;;11.96;74.13
4745;BME280;2386;42.138;24.746;2023-04-02T02:47:30;98669.13;;;12.03;73.56
4745;BME280;2386;42.138;24.746;2023-04-02T02:50:01;98663.66;;;11.98;74.81
4745;BME280;2386;42.138;24.746;2023-04-02T02:52:30;98677.28;;;12.03;74.43
4745;BME280;2386;42.138;24.746;2023-04-02T02:55:00;98667.47;;;12.02;74.85
4745;BME280;2386;42.138;24.746;2023-04-02T02:57:40;98663.09;;;11.96;72.48
4745;BME280;2386;42.138;24.746;2023-04-02T03:00:09;98672.34;;;12.00;73.06
4745;BME280;2386;42.138;24.746;2023-04-02T03:02:40;98670.22;;;12.07;73.17
4745;BME280;2386;42.138;24.746;2023-04-02T03:05:07;98672.63;;;11.98;73.94
4745;BME280;2386;42.138;24.746;2023-04-02T03:07:33;98680.53;;;12.05;75.26
4745;BME280;2386;42.138;24.746;2023-04-02T03:13:11;98683.56;;;12.08;74.27
4745;BME280;2386;42.138;24.746;2023-04-02T03:15:56;98680.03;;;12.13;74.28
4745;BME280;2386;42.138;24.746;2023-04-02T03:24:34;98683.03;;;11.69;78.36
4745;BME280;2386;42.138;24.746;2023-04-02T03:26:55;98679.28;;;11.75;78.01
4745;BME280;2386;42.138;24.746;2023-04-02T03:29:30;98687.88;;;11.62;79.83
4745;BME280;2386;42.138;24.746;2023-04-02T03:32:02;98685.09;;;11.57;81.04
4745;BME280;2386;42.138;24.746;2023-04-02T03:34:40;98693.00;;;11.27;83.62
4745;BME280;2386;42.138;24.746;2023-04-02T03:37:25;98696.53;;;10.95;86.20
4745;BME280;2386;42.138;24.746;2023-04-02T03:40:01;98700.72;;;11.08;86.06
4745;BME280;2386;42.138;24.746;2023-04-02T03:42:54;98704.19;;;11.03;87.42
4745;BME280;2386;42.138;24.746;2023-04-02T03:45:24;98701.38;;;10.93;88.05
4745;BME280;2386;42.138;24.746;2023-04-02T03:48:04;98707.31;;;10.90;88.27
4745;BME280;2386;42.138;24.746;2023-04-02T03:50:59;98714.97;;;10.71;89.59
4745;BME280;2386;42.138;24.746;2023-04-02T03:53:28;98709.94;;;10.80;89.61
4745;BME280;2386;42.138;24.746;2023-04-02T03:55:56;98704.88;;;10.67;87.91
4745;BME280;2386;42.138;24.746;2023-04-02T03:58:40;98703.16;;;10.82;86.48
4745;BME280;2386;42.138;24.746;2023-04-02T04:01:17;98701.94;;;10.95;87.32
4745;BME280;2386;42.138;24.746;2023-04-02T04:03:48;98712.66;;;11.07;85.45
4745;BME280;2386;42.138;24.746;2023-04-02T04:06:19;98691.66;;;10.97;85.81
4745;BME280;2386;42.138;24.746;2023-04-02T04:09:08;98705.44;;;11.23;85.73
4745;BME280;2386;42.138;24.746;2023-04-02T04:12:01;98691.56;;;11.19;87.76
4745;BME280;2386;42.138;24.746;2023-04-02T04:14:33;98701.69;;;11.29;83.90
4745;BME280;2386;42.138;24.746;2023-04-02T04:17:43;98704.16;;;11.30;82.62
4745;BME280;2386;42.138;24.746;2023-04-02T04:20:14;98697.97;;;11.03;85.25
4745;BME280;2386;42.138;24.746;2023-04-02T04:22:42;98710.81;;;11.12;85.44
4745;BME280;2386;42.138;24.746;2023-04-02T04:25:19;98713.56;;;10.91;87.42
4745;BME280;2386;42.138;24.746;2023-04-02T04:31:08;98728.81;;;10.97;87.93
4745;BME280;2386;42.138;24.746;2023-04-02T04:33:44;98731.97;;;11.10;86.42
4745;BME280;2386;42.138;24.746;2023-04-02T04:36:26;98723.16;;;10.98;86.88
4745;BME280;2386;42.138;24.746;2023-04-02T04:38:59;98722.94;;;11.05;85.42
4745;BME280;2386;42.138;24.746;2023-04-02T04:41:34;98723.25;;;11.08;84.84
4745;BME280;2386;42.138;24.746;2023-04-02T04:46:57;98718.47;;;11.20;78.32
4745;BME280;2386;42.138;24.746;2023-04-02T04:49:45;98701.75;;;11.34;77.39
4745;BME280;2386;42.138;24.746;2023-04-02T04:52:24;98710.38;;;11.58;72.93
4745;BME280;2386;42.138;24.746;2023-04-02T04:54:50;98706.97;;;11.72;71.37
4745;BME280;2386;42.138;24.746;2023-04-02T04:57:28;98707.66;;;11.95;69.95
4745;BME280;2386;42.138;24.746;2023-04-02T05:00:04;98720.78;;;12.08;67.05
4745;BME280;2386;42.138;24.746;2023-04-02T05:02:40;98717.56;;;12.16;66.59
4745;BME280;2386;42.138;24.746;2023-04-02T05:05:19;98727.47;;;12.32;66.79
4745;BME280;2386;42.138;24.746;2023-04-02T05:07:52;98725.56;;;12.33;69.05
4745;BME280;2386;42.138;24.746;2023-04-02T05:10:40;98726.28;;;12.18;71.69
4745;BME280;2386;42.138;24.746;2023-04-02T05:13:19;98741.75;;;12.12;73.51
4745;BME280;2386;42.138;24.746;2023-04-02T05:19:31;98745.50;;;12.06;74.47
4745;BME280;2386;42.138;24.746;2023-04-02T05:22:26;98732.38;;;11.88;75.80
4745;BME280;2386;42.138;24.746;2023-04-02T05:28:18;98753.28;;;11.88;77.45
4745;BME280;2386;42.138;24.746;2023-04-02T05:32:06;98747.81;;;11.82;78.43
4745;BME280;2386;42.138;24.746;2023-04-02T05:34:05;98745.13;;;11.88;77.48
4745;BME280;2386;42.138;24.746;2023-04-02T05:36:31;98746.31;;;11.70;78.51
4745;BME280;2386;42.138;24.746;2023-04-02T05:38:58;98763.69;;;12.01;77.49
4745;BME280;2386;42.138;24.746;2023-04-02T05:46:47;98766.38;;;11.96;77.63
4745;BME280;2386;42.138;24.746;2023-04-02T05:49:23;98761.72;;;11.91;78.07
4745;BME280;2386;42.138;24.746;2023-04-02T05:51:53;98762.00;;;11.95;77.58
4745;BME280;2386;42.138;24.746;2023-04-02T05:54:25;98754.75;;;12.05;73.98
4745;BME280;2386;42.138;24.746;2023-04-02T05:57:10;98763.31;;;12.24;71.65
4745;BME280;2386;42.138;24.746;2023-04-02T05:59:59;98769.63;;;12.35;71.25
4745;BME280;2386;42.138;24.746;2023-04-02T06:02:35;98777.00;;;12.39;71.82
4745;BME280;2386;42.138;24.746;2023-04-02T06:05:06;98775.66;;;12.42;71.31
4745;BME280;2386;42.138;24.746;2023-04-02T06:07:54;98771.06;;;12.47;70.59
4745;BME280;2386;42.138;24.746;2023-04-02T06:10:52;98780.94;;;12.69;69.93
4745;BME280;2386;42.138;24.746;2023-04-02T06:13:19;98785.88;;;12.82;64.86
4745;BME280;2386;42.138;24.746;2023-04-02T06:15:45;98771.25;;;12.93;65.12
4745;BME280;2386;42.138;24.746;2023-04-02T06:18:27;98796.69;;;13.19;63.50
4745;BME280;2386;42.138;24.746;2023-04-02T06:20:54;98773.53;;;13.22;63.53
4745;BME280;2386;42.138;24.746;2023-04-02T06:23:31;98774.66;;;13.36;63.12
4745;BME280;2386;42.138;24.746;2023-04-02T06:26:05;98784.72;;;13.45;63.36
4745;BME280;2386;42.138;24.746;2023-04-02T06:29:01;98786.91;;;13.43;63.80
4745;BME280;2386;42.138;24.746;2023-04-02T06:31:44;98791.00;;;13.51;65.37
4745;BME280;2386;42.138;24.746;2023-04-02T06:34:19;98788.81;;;13.53;64.96
4745;BME280;2386;42.138;24.746;2023-04-02T06:36:47;98791.28;;;13.60;63.98
4745;BME280;2386;42.138;24.746;2023-04-02T06:39:17;98797.03;;;13.84;63.36
4745;BME280;2386;42.138;24.746;2023-04-02T06:41:43;98799.22;;;14.02;60.92
4745;BME280;2386;42.138;24.746;2023-04-02T06:44:20;98795.63;;;14.11;59.72
4745;BME280;2386;42.138;24.746;2023-04-02T06:46:57;98806.81;;;14.30;59.02
4745;BME280;2386;42.138;24.746;2023-04-02T06:51:59;98799.72;;;14.34;57.04
4745;BME280;2386;42.138;24.746;2023-04-02T06:54:26;98800.25;;;14.46;57.41
4745;BME280;2386;42.138;24.746;2023-04-02T06:56:53;98797.50;;;14.62;56.26
4745;BME280;2386;42.138;24.746;2023-04-02T06:59:21;98803.50;;;14.69;55.23
4745;BME280;2386;42.138;24.746;2023-04-02T07:01:56;98808.66;;;14.75;56.30
4745;BME280;2386;42.138;24.746;2023-04-02T07:04:22;98802.91;;;14.77;54.84
4745;BME280;2386;42.138;24.746;2023-04-02T07:06:47;98814.13;;;14.70;53.63
4745;BME280;2386;42.138;24.746;2023-04-02T07:09:14;98810.28;;;14.76;54.22
4745;BME280;2386;42.138;24.746;2023-04-02T07:11:40;98815.81;;;14.56;53.55
4745;BME280;2386;42.138;24.746;2023-04-02T07:14:05;98809.50;;;14.66;54.02
4745;BME280;2386;42.138;24.746;2023-04-02T07:16:32;98821.53;;;14.55;53.95
4745;BME280;2386;42.138;24.746;2023-04-02T07:18:59;98820.72;;;14.59;54.41
4745;BME280;2386;42.138;24.746;2023-04-02T07:21:25;98828.06;;;14.64;54.75
4745;BME280;2386;42.138;24.746;2023-04-02T07:23:52;98824.78;;;14.62;54.78
4745;BME280;2386;42.138;24.746;2023-04-02T07:26:22;98828.06;;;14.64;54.93
4745;BME280;2386;42.138;24.746;2023-04-02T07:28:48;98832.41;;;14.75;54.97
4745;BME280;2386;42.138;24.746;2023-04-02T07:31:16;98828.06;;;14.69;54.71
4745;BME280;2386;42.138;24.746;2023-04-02T07:33:42;98840.03;;;14.78;54.08
4745;BME280;2386;42.138;24.746;2023-04-02T07:36:13;98835.59;;;14.92;54.26
4745;BME280;2386;42.138;24.746;2023-04-02T07:38:38;98838.53;;;15.11;53.06
4745;BME280;2386;42.138;24.746;2023-04-02T07:41:05;98839.81;;;15.34;53.20
4745;BME280;2386;42.138;24.746;2023-04-02T07:43:30;98829.63;;;15.50;51.91
4745;BME280;2386;42.138;24.746;2023-04-02T07:45:56;98830.97;;;15.57;50.37
4745;BME280;2386;42.138;24.746;2023-04-02T07:48:21;98840.25;;;15.51;50.40
4745;BME280;2386;42.138;24.746;2023-04-02T07:50:47;98843.69;;;15.72;49.58
4745;BME280;2386;42.138;24.746;2023-04-02T07:53:32;98841.72;;;15.83;48.69
4745;BME280;2386;42.138;24.746;2023-04-02T07:56:00;98837.03;;;15.88;48.77
4745;BME280;2386;42.138;24.746;2023-04-02T07:58:26;98833.00;;;15.75;48.72
4745;BME280;2386;42.138;24.746;2023-04-02T08:00:52;98824.69;;;15.57;49.93
4745;BME280;2386;42.138;24.746;2023-04-02T08:03:18;98815.72;;;15.41;49.10
4745;BME280;2386;42.138;24.746;2023-04-02T08:05:55;98816.84;;;15.35;48.52
4745;BME280;2386;42.138;24.746;2023-04-02T08:08:23;98830.03;;;15.23;49.49
4745;BME280;2386;42.138;24.746;2023-04-02T08:10:49;98820.22;;;15.17;50.43
4745;BME280;2386;42.138;24.746;2023-04-02T08:13:16;98826.72;;;15.31;50.40
4745;BME280;2386;42.138;24.746;2023-04-02T08:15:42;98819.34;;;15.26;49.21
4745;BME280;2386;42.138;24.746;2023-04-02T08:18:09;98824.28;;;15.24;49.73
4745;BME280;2386;42.138;24.746;2023-04-02T08:20:35;98829.97;;;15.33;48.71
4745;BME280;2386;42.138;24.746;2023-04-02T08:23:01;98821.25;;;15.31;49.02
4745;BME280;2386;42.138;24.746;2023-04-02T08:25:27;98820.09;;;15.42;49.00
4745;BME280;2386;42.138;24.746;2023-04-02T08:27:53;98828.25;;;15.47;47.84
4745;BME280;2386;42.138;24.746;2023-04-02T08:30:18;98818.38;;;15.56;47.62
4745;BME280;2386;42.138;24.746;2023-04-02T08:32:44;98821.06;;;15.61;46.98
4745;BME280;2386;42.138;24.746;2023-04-02T08:35:12;98817.84;;;15.54;46.04
4745;BME280;2386;42.138;24.746;2023-04-02T08:37:39;98811.53;;;15.54;45.70
4745;BME280;2386;42.138;24.746;2023-04-02T08:40:05;98819.94;;;15.67;46.35
4745;BME280;2386;42.138;24.746;2023-04-02T08:42:42;98806.25;;;15.67;45.90
4745;BME280;2386;42.138;24.746;2023-04-02T08:45:24;98817.66;;;15.80;45.17
4745;BME280;2386;42.138;24.746;2023-04-02T08:47:57;98816.84;;;15.79;44.67
4745;BME280;2386;42.138;24.746;2023-04-02T08:50:29;98812.13;;;15.90;44.95
4745;BME280;2386;42.138;24.746;2023-04-02T08:52:57;98805.47;;;16.01;45.06
4745;BME280;2386;42.138;24.746;2023-04-02T08:55:43;98809.97;;;16.21;45.29
4745;BME280;2386;42.138;24.746;2023-04-02T08:58:31;98801.66;;;16.31;44.11
4745;BME280;2386;42.138;24.746;2023-04-02T09:01:04;98800.72;;;16.40;43.79
4745;BME280;2386;42.138;24.746;2023-04-02T09:03:41;98793.38;;;16.36;43.67
4745;BME280;2386;42.138;24.746;2023-04-02T09:06:12;98808.28;;;16.49;42.69
4745;BME280;2386;42.138;24.746;2023-04-02T09:08:42;98804.41;;;16.55;42.15
4745;BME280;2386;42.138;24.746;2023-04-02T09:13:58;98788.72;;;16.60;42.45
4745;BME280;2386;42.138;24.746;2023-04-02T09:16:39;98794.94;;;16.71;42.16
4745;BME280;2386;42.138;24.746;2023-04-02T09:19:25;98785.28;;;16.79;41.98
4745;BME280;2386;42.138;24.746;2023-04-02T09:24:30;98787.47;;;17.00;42.09
4745;BME280;2386;42.138;24.746;2023-04-02T09:26:55;98790.06;;;17.11;42.01
4745;BME280;2386;42.138;24.746;2023-04-02T09:29:41;98790.22;;;17.19;42.32
4745;BME280;2386;42.138;24.746;2023-04-02T09:34:46;98765.72;;;17.28;42.25
4745;BME280;2386;42.138;24.746;2023-04-02T09:37:19;98772.69;;;17.39;42.18
4745;BME280;2386;42.138;24.746;2023-04-02T09:39:47;98772.69;;;17.39;41.17
4745;BME280;2386;42.138;24.746;2023-04-02T09:47:39;98770.69;;;17.63;41.53
4745;BME280;2386;42.138;24.746;2023-04-02T09:52:46;98766.31;;;17.81;40.82
4745;BME280;2386;42.138;24.746;2023-04-02T09:55:24;98762.34;;;17.87;38.88
4745;BME280;2386;42.138;24.746;2023-04-02T09:58:07;98770.13;;;17.99;39.17
4745;BME280;2386;42.138;24.746;2023-04-02T10:00:36;98755.00;;;18.15;40.06
4745;BME280;2386;42.138;24.746;2023-04-02T10:03:06;98746.09;;;18.23;39.54
4745;BME280;2386;42.138;24.746;2023-04-02T10:05:38;98740.84;;;18.41;38.40
4745;BME280;2386;42.138;24.746;2023-04-02T10:08:25;98743.38;;;18.51;34.67
4745;BME280;2386;42.138;24.746;2023-04-02T10:10:55;98719.56;;;18.60;35.96
4745;BME280;2386;42.138;24.746;2023-04-02T10:13:48;98732.81;;;18.71;35.22
4745;BME280;2386;42.138;24.746;2023-04-02T10:16:32;98726.69;;;18.88;35.18
4745;BME280;2386;42.138;24.746;2023-04-02T10:21:42;98729.81;;;19.09;34.50
4745;BME280;2386;42.138;24.746;2023-04-02T10:24:12;98726.03;;;19.19;34.28
4745;BME280;2386;42.138;24.746;2023-04-02T10:45:48;98722.22;;;19.64;33.06
4745;BME280;2386;42.138;24.746;2023-04-02T10:56:17;98692.72;;;19.56;34.23
4745;BME280;2386;42.138;24.746;2023-04-02T10:58:53;98700.22;;;19.64;33.50
4745;BME280;2386;42.138;24.746;2023-04-02T11:01:24;98700.97;;;19.79;31.86
4745;BME280;2386;42.138;24.746;2023-04-02T11:03:56;98693.66;;;19.74;30.66
4745;BME280;2386;42.138;24.746;2023-04-02T11:06:26;98693.38;;;19.84;31.38
4745;BME280;2386;42.138;24.746;2023-04-02T11:08:59;98691.75;;;19.83;31.76
4745;BME280;2386;42.138;24.746;2023-04-02T11:11:29;98698.59;;;19.86;31.77
4745;BME280;2386;42.138;24.746;2023-04-02T11:16:43;98687.38;;;19.82;32.15
4745;BME280;2386;42.138;24.746;2023-04-02T11:21:41;98679.72;;;20.01;32.54
4745;BME280;2386;42.138;24.746;2023-04-02T11:26:48;98674.28;;;20.19;32.15
4745;BME280;2386;42.138;24.746;2023-04-02T11:29:18;98673.97;;;20.20;32.21
4745;BME280;2386;42.138;24.746;2023-04-02T11:31:46;98674.09;;;20.15;32.30
4745;BME280;2386;42.138;24.746;2023-04-02T11:34:14;98673.91;;;20.12;32.20
4745;BME280;2386;42.138;24.746;2023-04-02T11:42:34;98654.00;;;20.15;32.23
4745;BME280;2386;42.138;24.746;2023-04-02T11:50:36;98648.50;;;20.46;32.50
4745;BME280;2386;42.138;24.746;2023-04-02T11:53:04;98649.81;;;20.57;32.28
4745;BME280;2386;42.138;24.746;2023-04-02T11:55:34;98640.41;;;20.49;31.90
4745;BME280;2386;42.138;24.746;2023-04-02T12:00:47;98641.72;;;20.52;32.31
4745;BME280;2386;42.138;24.746;2023-04-02T12:06:06;98636.72;;;20.71;32.18
4745;BME280;2386;42.138;24.746;2023-04-02T12:11:05;98633.63;;;20.81;31.74
4745;BME280;2386;42.138;24.746;2023-04-02T12:13:47;98640.47;;;20.92;31.82
4745;BME280;2386;42.138;24.746;2023-04-02T12:16:13;98645.47;;;20.82;32.02
4745;BME280;2386;42.138;24.746;2023-04-02T12:18:50;98638.03;;;20.91;32.27
4745;BME280;2386;42.138;24.746;2023-04-02T12:21:24;98640.00;;;21.08;32.43
4745;BME280;2386;42.138;24.746;2023-04-02T12:23:52;98614.03;;;21.09;33.26
4745;BME280;2386;42.138;24.746;2023-04-02T12:26:36;98631.09;;;21.28;33.09
4745;BME280;2386;42.138;24.746;2023-04-02T12:29:21;98625.25;;;21.29;31.80
4745;BME280;2386;42.138;24.746;2023-04-02T12:31:50;98636.13;;;21.35;32.18
4745;BME280;2386;42.138;24.746;2023-04-02T12:34:18;98645.22;;;21.44;31.19
4745;BME280;2386;42.138;24.746;2023-04-02T12:36:59;98635.47;;;21.46;31.03
4745;BME280;2386;42.138;24.746;2023-04-02T12:39:27;98623.13;;;22.16;31.21
4745;BME280;2386;42.138;24.746;2023-04-02T12:41:52;98622.38;;;23.95;28.05
4745;BME280;2386;42.138;24.746;2023-04-02T12:44:21;98627.66;;;25.77;26.19
4745;BME280;2386;42.138;24.746;2023-04-02T12:46:48;98621.78;;;28.12;23.41
4745;BME280;2386;42.138;24.746;2023-04-02T12:51:52;98628.84;;;31.84;19.96
4745;BME280;2386;42.138;24.746;2023-04-02T12:54:18;98620.34;;;33.40;18.66
4745;BME280;2386;42.138;24.746;2023-04-02T12:56:47;98629.84;;;34.30;17.87
4745;BME280;2386;42.138;24.746;2023-04-02T12:59:33;98624.66;;;35.52;16.57
4745;BME280;2386;42.138;24.746;2023-04-02T13:02:15;98630.25;;;36.63;16.71
4745;BME280;2386;42.138;24.746;2023-04-02T13:05:07;98628.34;;;37.23;15.97
4745;BME280;2386;42.138;24.746;2023-04-02T13:07:33;98622.13;;;37.71;15.39
4745;BME280;2386;42.138;24.746;2023-04-02T13:10:00;98630.06;;;38.12;14.66
4745;BME280;2386;42.138;24.746;2023-04-02T13:12:37;98638.31;;;37.31;15.36
4745;BME280;2386;42.138;24.746;2023-04-02T13:15:15;98635.00;;;36.19;16.31
4745;BME280;2386;42.138;24.746;2023-04-02T13:17:46;98636.41;;;37.25;15.70
4745;BME280;2386;42.138;24.746;2023-04-02T13:23:23;98630.75;;;38.00;15.43
4745;BME280;2386;42.138;24.746;2023-04-02T13:25:47;98620.81;;;38.44;15.63
4745;BME280;2386;42.138;24.746;2023-04-02T13:28:12;98622.47;;;38.91;15.31
4745;BME280;2386;42.138;24.746;2023-04-02T13:30:38;98629.03;;;39.33;14.57
4745;BME280;2386;42.138;24.746;2023-04-02T13:33:03;98627.19;;;39.68;14.43
4745;BME280;2386;42.138;24.746;2023-04-02T13:35:28;98618.94;;;39.44;14.79
4745;BME280;2386;42.138;24.746;2023-04-02T13:37:54;98622.03;;;39.50;13.84
4745;BME280;2386;42.138;24.746;2023-04-02T13:40:19;98620.66;;;38.52;14.23
4745;BME280;2386;42.138;24.746;2023-04-02T13:42:45;98614.53;;;39.15;14.52
4745;BME280;2386;42.138;24.746;2023-04-02T13:45:27;98617.59;;;38.91;14.12
4745;BME280;2386;42.138;24.746;2023-04-02T13:47:53;98607.44;;;39.77;13.85
4745;BME280;2386;42.138;24.746;2023-04-02T13:50:23;98619.53;;;39.52;14.11
4745;BME280;2386;42.138;24.746;2023-04-02T13:52:52;98610.81;;;37.71;14.72
4745;BME280;2386;42.138;24.746;2023-04-02T13:55:25;98621.97;;;38.47;14.80
4745;BME280;2386;42.138;24.746;2023-04-02T13:57:54;98610.16;;;35.50;16.29
4745;BME280;2386;42.138;24.746;2023-04-02T14:00:20;98602.16;;;33.55;17.99
4745;BME280;2386;42.138;24.746;2023-04-02T14:03:07;98607.25;;;32.41;18.24
4745;BME280;2386;42.138;24.746;2023-04-02T14:11:45;98592.34;;;28.14;23.13
4745;BME280;2386;42.138;24.746;2023-04-02T14:17:46;98605.91;;;25.95;24.66
4745;BME280;2386;42.138;24.746;2023-04-02T14:28:53;98597.09;;;23.96;27.53
4745;BME280;2386;42.138;24.746;2023-04-02T14:39:30;98592.41;;;23.10;28.75
4745;BME280;2386;42.138;24.746;2023-04-02T14:42:10;98590.88;;;23.21;29.83
4745;BME280;2386;42.138;24.746;2023-04-02T14:44:44;98589.03;;;23.25;31.16
4745;BME280;2386;42.138;24.746;2023-04-02T14:47:17;98594.84;;;23.32;29.11
4745;BME280;2386;42.138;24.746;2023-04-02T14:49:44;98595.97;;;23.31;29.89
4745;BME280;2386;42.138;24.746;2023-04-02T14:52:16;98594.38;;;23.30;29.33
4745;BME280;2386;42.138;24.746;2023-04-02T14:57:28;98593.41;;;23.26;30.55
4745;BME280;2386;42.138;24.746;2023-04-02T15:02:46;98589.78;;;23.13;28.88
4745;BME280;2386;42.138;24.746;2023-04-02T15:05:17;98601.72;;;23.05;29.43
4745;BME280;2386;42.138;24.746;2023-04-02T15:07:49;98587.09;;;23.05;28.59
4745;BME280;2386;42.138;24.746;2023-04-02T15:10:23;98599.78;;;23.06;29.22
4745;BME280;2386;42.138;24.746;2023-04-02T15:12:52;98592.63;;;23.05;30.02
4745;BME280;2386;42.138;24.746;2023-04-02T15:18:11;98607.38;;;22.67;28.95
4745;BME280;2386;42.138;24.746;2023-04-02T15:20:44;98605.06;;;22.48;29.04
4745;BME280;2386;42.138;24.746;2023-04-02T15:26:24;98604.47;;;22.34;29.22
4745;BME280;2386;42.138;24.746;2023-04-02T15:40:25;98608.53;;;22.07;29.53
4745;BME280;2386;42.138;24.746;2023-04-02T15:43:16;98603.69;;;21.87;29.26
4745;BME280;2386;42.138;24.746;2023-04-02T15:46:05;98620.56;;;21.94;30.66
4745;BME280;2386;42.138;24.746;2023-04-02T16:05:24;98642.44;;;21.18;28.90
4745;BME280;2386;42.138;24.746;2023-04-02T16:10:35;98646.97;;;21.14;29.34
4745;BME280;2386;42.138;24.746;2023-04-02T16:13:12;98646.97;;;21.14;30.76
4745;BME280;2386;42.138;24.746;2023-04-02T16:21:26;98642.09;;;20.93;30.26
4745;BME280;2386;42.138;24.746;2023-04-02T16:23:53;98638.03;;;20.91;30.25
4745;BME280;2386;42.138;24.746;2023-04-02T16:34:46;98654.56;;;20.65;33.65
4745;BME280;2386;42.138;24.746;2023-04-02T16:53:21;98644.63;;;20.16;33.60
4745;BME280;2386;42.138;24.746;2023-04-02T16:56:30;98647.88;;;20.18;33.47
4745;BME280;2386;42.138;24.746;2023-04-02T16:59:10;98649.47;;;20.10;34.57
4745;BME280;2386;42.138;24.746;2023-04-02T17:12:55;98658.69;;;19.75;32.54
4745;BME280;2386;42.138;24.746;2023-04-02T17:15:38;98667.13;;;19.78;33.59
4745;BME280;2386;42.138;24.746;2023-04-02T17:18:15;98670.63;;;19.70;33.17
4745;BME280;2386;42.138;24.746;2023-04-02T17:20:41;98673.69;;;19.68;33.58
4745;BME280;2386;42.138;24.746;2023-04-02T17:23:12;98679.63;;;19.62;34.02
4745;BME280;2386;42.138;24.746;2023-04-02T17:25:44;98674.63;;;19.64;34.29
4745;BME280;2386;42.138;24.746;2023-04-02T17:28:15;98686.59;;;19.59;33.86
4745;BME280;2386;42.138;24.746;2023-04-02T17:30:46;98686.59;;;19.59;34.67
4745;BME280;2386;42.138;24.746;2023-04-02T17:33:15;98694.91;;;19.32;34.53
4745;BME280;2386;42.138;24.746;2023-04-02T17:38:54;98716.84;;;19.23;34.72
4745;BME280;2386;42.138;24.746;2023-04-02T17:41:33;98716.28;;;19.13;35.08
4745;BME280;2386;42.138;24.746;2023-04-02T17:47:14;98730.91;;;19.22;35.16
4745;BME280;2386;42.138;24.746;2023-04-02T17:50:08;98733.97;;;19.20;34.67